createdAt,value
2023-02-04T10:58:44.419Z,144.60
2023-02-04T11:01:13.146Z,171.50
2023-02-04T11:03:41.767Z,153.70
2023-02-04T11:06:18.076Z,160.75
2023-02-04T11:08:46.656Z,168.65
2023-02-04T11:11:25.483Z,158.27
2023-02-04T11:13:52.733Z,153.45
2023-02-04T11:16:33.150Z,148.50
2023-02-04T11:19:06.229Z,156.52
2023-02-04T11:21:33.276Z,166.52
2023-02-04T11:24:12.621Z,160.57
2023-02-04T11:26:49.207Z,203.63
2023-02-04T11:29:17.098Z,217.02
2023-02-04T11:31:57.173Z,194.50
2023-02-04T11:34:26.201Z,188.18
2023-02-04T11:36:59.124Z,191.48
2023-02-04T11:39:32.656Z,174.50
2023-02-04T11:42:03.355Z,167.23
2023-02-04T11:44:30.658Z,152.85
2023-02-04T11:47:08.965Z,152.15
2023-02-04T11:49:36.945Z,154.35
2023-02-04T11:52:09.121Z,189.90
2023-02-04T11:54:36.660Z,150.13
2023-02-04T11:57:05.916Z,185.52
2023-02-04T11:59:33.281Z,179.48
2023-02-04T12:02:16.857Z,217.45
2023-02-04T12:05:10.163Z,185.40
2023-02-04T12:07:37.293Z,168.40
2023-02-04T12:10:25.660Z,166.25
2023-02-04T12:12:59.872Z,168.82
2023-02-04T12:15:37.967Z,171.70
2023-02-04T12:18:10.213Z,160.43
2023-02-04T12:21:15.005Z,153.48
2023-02-04T12:23:42.693Z,160.50
2023-02-04T12:26:10.402Z,165.63
2023-02-04T12:28:37.280Z,161.98
2023-02-04T12:31:04.760Z,155.25
2023-02-04T12:33:31.903Z,163.43
2023-02-04T12:35:58.938Z,149.73
2023-02-04T12:38:27.777Z,151.50
2023-02-04T12:40:54.881Z,146.98
2023-02-04T12:43:21.986Z,158.90
2023-02-04T12:45:50.158Z,158.57
2023-02-04T12:48:17.516Z,143.40
2023-02-04T12:50:45.416Z,168.93
2023-02-04T12:53:12.463Z,160.75
2023-02-04T12:55:39.464Z,160.63
2023-02-04T12:58:06.503Z,169.45
2023-02-04T13:00:33.714Z,148.68
2023-02-04T13:03:00.920Z,153.32
2023-02-04T13:05:28.415Z,157.63
2023-02-04T13:07:55.517Z,161.40
2023-02-04T13:10:24.142Z,174.45
2023-02-04T13:12:51.925Z,183.82
2023-02-04T13:15:19.160Z,173.85
2023-02-04T13:17:46.151Z,185.32
2023-02-04T13:20:14.075Z,198.77
2023-02-04T13:22:41.067Z,198.40
2023-02-04T13:25:09.638Z,204.32
2023-02-04T13:27:37.079Z,203.25
2023-02-04T13:30:05.944Z,204.80
2023-02-04T13:32:33.244Z,205.32
2023-02-04T13:35:00.290Z,210.40
2023-02-04T13:37:27.273Z,212.52
2023-02-04T13:39:54.334Z,200.73
2023-02-04T13:42:21.793Z,201.52
2023-02-04T13:44:48.942Z,220.10
2023-02-04T13:47:15.987Z,202.23
2023-02-04T13:49:43.033Z,203.82
2023-02-04T13:52:10.086Z,210.93
2023-02-04T13:54:37.024Z,201.07
2023-02-04T13:57:05.632Z,203.93
2023-02-04T13:59:32.760Z,207.77
2023-02-04T14:01:59.855Z,196.88
2023-02-04T14:04:27.290Z,207.02
2023-02-04T14:06:55.594Z,181.90
2023-02-04T14:09:25.611Z,200.52
2023-02-04T14:11:52.646Z,189.25
2023-02-04T14:14:19.748Z,208.68
2023-02-04T14:16:47.075Z,183.60
2023-02-04T14:19:15.253Z,193.70
2023-02-04T14:21:42.472Z,179.52
2023-02-04T14:24:09.493Z,206.50
2023-02-04T14:26:36.573Z,196.07
2023-02-04T14:29:04.656Z,173.32
2023-02-04T14:31:33.198Z,187.35
2023-02-04T14:34:05.588Z,200.95
2023-02-04T14:36:32.586Z,177.63
2023-02-04T14:38:59.582Z,184.45
2023-02-04T14:41:26.605Z,175.18
2023-02-04T14:43:53.978Z,223.38
2023-02-04T14:47:13.298Z,189.85
2023-02-04T14:49:40.349Z,165.75
2023-02-04T14:52:08.379Z,174.43
2023-02-04T14:54:36.747Z,181.25
2023-02-04T14:57:03.944Z,190.20
2023-02-04T14:59:31.760Z,188.20
2023-02-04T15:01:58.940Z,185.98
2023-02-04T15:08:04.938Z,181.35
2023-02-04T15:10:32.265Z,181.07
2023-02-04T15:12:59.603Z,183.10
2023-02-04T15:15:26.649Z,173.77
2023-02-04T15:17:53.842Z,196.82
2023-02-04T15:20:20.885Z,182.95
2023-02-04T15:22:52.640Z,179.73
2023-02-04T15:25:19.642Z,169.55
2023-02-04T15:27:46.710Z,174.55
2023-02-04T15:30:13.942Z,133.88
2023-02-04T15:32:42.987Z,182.23
2023-02-04T15:35:10.137Z,183.40
2023-02-04T15:37:37.225Z,187.70
2023-02-04T15:40:05.297Z,168.43
2023-02-04T15:42:33.555Z,160.63
2023-02-04T15:45:00.721Z,159.82
2023-02-04T15:47:27.916Z,158.90
2023-02-04T15:49:55.222Z,166.38
2023-02-04T15:52:24.953Z,196.73
2023-02-04T15:54:52.897Z,189.45
2023-02-04T15:57:20.357Z,192.63
2023-02-04T15:59:47.557Z,212.50
2023-02-04T16:02:14.682Z,207.63
2023-02-04T16:04:45.345Z,191.85
2023-02-04T16:07:12.489Z,190.52
2023-02-04T16:09:39.586Z,200.95
2023-02-04T16:12:06.786Z,199.98
2023-02-04T16:14:33.732Z,182.55
2023-02-04T16:17:02.875Z,187.82
2023-02-04T16:19:29.982Z,199.60
2023-02-04T16:21:57.167Z,179.77
2023-02-04T16:24:24.223Z,193.73
2023-02-04T16:26:51.216Z,184.48
2023-02-04T16:29:18.216Z,187.23
2023-02-04T16:31:45.407Z,186.18
2023-02-04T16:34:12.512Z,191.88
2023-02-04T16:36:39.461Z,191.57
2023-02-04T16:39:06.610Z,188.02
2023-02-04T16:41:33.552Z,186.80
2023-02-04T16:44:00.715Z,197.57
2023-02-04T16:46:30.620Z,222.60
2023-02-04T16:48:57.801Z,217.68
2023-02-04T16:54:57.285Z,197.35
2023-02-04T16:57:24.376Z,212.82
2023-02-04T16:59:51.478Z,229.00
2023-02-04T17:02:18.630Z,222.75
2023-02-04T17:04:45.670Z,228.23
2023-02-04T17:07:12.700Z,212.50
2023-02-04T17:09:39.772Z,225.20
2023-02-04T17:12:06.967Z,200.90
2023-02-04T17:14:34.011Z,214.35
2023-02-04T17:17:01.011Z,235.57
2023-02-04T17:19:27.999Z,220.18
2023-02-04T17:21:54.997Z,223.80
2023-02-04T17:24:22.043Z,242.65
2023-02-04T17:26:50.267Z,247.77
2023-02-04T17:29:18.032Z,235.93
2023-02-04T17:31:45.136Z,218.52
2023-02-04T17:34:12.224Z,229.40
2023-02-04T17:36:39.327Z,245.57
2023-02-04T17:39:07.804Z,235.52
2023-02-04T17:41:34.857Z,257.17
2023-02-04T17:44:03.489Z,234.70
2023-02-04T17:46:31.333Z,201.98
2023-02-04T17:48:58.982Z,217.75
2023-02-04T17:51:26.247Z,219.80
2023-02-04T17:53:53.374Z,231.20
2023-02-04T17:56:21.626Z,219.68
2023-02-04T17:58:49.615Z,208.90
2023-02-04T18:01:19.414Z,230.18
2023-02-04T18:03:46.884Z,233.77
2023-02-04T18:06:23.972Z,217.13
2023-02-04T18:08:51.826Z,227.60
2023-02-04T18:11:27.388Z,210.25
2023-02-04T18:14:15.930Z,196.65
2023-02-04T18:16:43.458Z,199.05
2023-02-04T18:19:29.215Z,213.93
2023-02-04T18:21:58.308Z,216.43
2023-02-04T18:24:36.515Z,210.10
2023-02-04T18:27:16.970Z,215.63
2023-02-04T18:29:48.163Z,200.70
2023-02-04T18:32:36.566Z,224.48
2023-02-04T18:35:23.067Z,229.52
2023-02-04T18:37:52.416Z,227.35
2023-02-04T18:40:28.417Z,221.68
2023-02-04T18:43:22.805Z,209.40
2023-02-04T18:45:50.072Z,214.15
2023-02-04T18:48:19.854Z,204.38
2023-02-04T18:50:55.880Z,195.75
2023-02-04T18:53:28.551Z,189.95
2023-02-04T18:55:58.468Z,190.50
2023-02-04T18:58:34.166Z,166.77
2023-02-04T19:01:11.599Z,188.93
2023-02-04T19:03:53.040Z,185.48
2023-02-04T19:06:33.679Z,182.55
2023-02-04T19:09:13.246Z,185.55
2023-02-04T19:11:47.044Z,183.93
2023-02-04T19:14:40.773Z,176.85
2023-02-04T19:17:21.593Z,168.23
2023-02-04T19:20:23.141Z,178.68
2023-02-04T19:22:57.151Z,165.40
2023-02-04T19:25:40.843Z,182.82
2023-02-04T19:28:28.406Z,216.43
2023-02-04T19:31:04.214Z,174.57
2023-02-04T19:33:43.002Z,157.85
2023-02-04T19:36:37.532Z,167.15
2023-02-04T19:39:38.650Z,172.15
2023-02-04T19:42:36.501Z,165.43
2023-02-04T19:45:22.125Z,166.25
2023-02-04T19:47:50.661Z,174.27
2023-02-04T19:50:29.696Z,164.48
2023-02-04T19:53:13.132Z,154.05
2023-02-04T19:55:44.570Z,148.40
2023-02-04T19:58:16.942Z,165.15
2023-02-04T20:00:48.033Z,170.93
2023-02-04T20:03:40.884Z,171.30
